sensor_id;sensor_type;location;lat;lon;timestamp;temperature;humidity
5940;DHT22;2995;-31.998;115.906;2022-12-07T00:00:45;23.10;99.90
5940;DHT22;2995;-31.998;115.906;2022-12-07T00:03:16;22.90;99.90
5940;DHT22;2995;-31.998;115.906;2022-12-07T00:05:47;22.60;99.90
5940;DHT22;2995;-31.998;115.906;2022-12-07T00:08:19;22.50;99.90
5940;DHT22;2995;-31.998;115.906;2022-12-07T00:10:50;22.80;99.90
5940;DHT22;2995;-31.998;115.906;2022-12-07T00:13:23;23.10;99.90
5940;DHT22;2995;-31.998;115.906;2022-12-07T00:15:55;23.30;99.90
5940;DHT22;2995;-31.998;115.906;2022-12-07T00:18:26;23.60;99.90
5940;DHT22;2995;-31.998;115.906;2022-12-07T00:21:01;23.50;99.90
5940;DHT22;2995;-31.998;115.906;2022-12-07T00:23:32;23.90;99.90
5940;DHT22;2995;-31.998;115.906;2022-12-07T00:26:07;24.20;99.90
5940;DHT22;2995;-31.998;115.906;2022-12-07T00:28:41;24.50;99.90
5940;DHT22;2995;-31.998;115.906;2022-12-07T00:31:16;24.70;99.90
5940;DHT22;2995;-31.998;115.906;2022-12-07T00:33:47;24.80;99.90
5940;DHT22;2995;-31.998;115.906;2022-12-07T00:36:20;24.50;99.90
5940;DHT22;2995;-31.998;115.906;2022-12-07T00:38:51;24.60;99.90
5940;DHT22;2995;-31.998;115.906;2022-12-07T00:41:23;24.40;99.90
5940;DHT22;2995;-31.998;115.906;2022-12-07T00:43:57;25.20;99.90
5940;DHT22;2995;-31.998;115.906;2022-12-07T00:46:28;24.80;99.90
5940;DHT22;2995;-31.998;115.906;2022-12-07T00:49:00;25.00;99.90
5940;DHT22;2995;-31.998;115.906;2022-12-07T00:51:32;25.50;99.90
5940;DHT22;2995;-31.998;115.906;2022-12-07T00:54:03;25.50;99.90
5940;DHT22;2995;-31.998;115.906;2022-12-07T00:56:35;25.20;99.90
5940;DHT22;2995;-31.998;115.906;2022-12-07T00:59:10;25.80;99.90
5940;DHT22;2995;-31.998;115.906;2022-12-07T01:01:43;26.30;99.90
5940;DHT22;2995;-31.998;115.906;2022-12-07T01:04:14;26.20;99.90
5940;DHT22;2995;-31.998;115.906;2022-12-07T01:06:45;26.40;99.90
5940;DHT22;2995;-31.998;115.906;2022-12-07T01:09:16;26.10;99.90
5940;DHT22;2995;-31.998;115.906;2022-12-07T01:11:49;25.60;99.90
5940;DHT22;2995;-31.998;115.906;2022-12-07T01:14:22;25.60;99.90
5940;DHT22;2995;-31.998;115.906;2022-12-07T01:16:54;25.80;99.90
5940;DHT22;2995;-31.998;115.906;2022-12-07T01:19:25;25.90;99.90
5940;DHT22;2995;-31.998;115.906;2022-12-07T01:21:57;26.50;99.90
5940;DHT22;2995;-31.998;115.906;2022-12-07T01:24:28;26.80;99.90
5940;DHT22;2995;-31.998;115.906;2022-12-07T01:27:00;27.30;99.90
5940;DHT22;2995;-31.998;115.906;2022-12-07T01:29:33;27.60;99.90
5940;DHT22;2995;-31.998;115.906;2022-12-07T01:32:04;27.40;99.90
5940;DHT22;2995;-31.998;115.906;2022-12-07T01:34:35;27.30;99.90
5940;DHT22;2995;-31.998;115.906;2022-12-07T01:37:07;27.10;99.90
5940;DHT22;2995;-31.998;115.906;2022-12-07T01:39:38;27.00;99.90
5940;DHT22;2995;-31.998;115.906;2022-12-07T01:42:10;26.90;99.90
5940;DHT22;2995;-31.998;115.906;2022-12-07T01:47:47;26.30;99.90
5940;DHT22;2995;-31.998;115.906;2022-12-07T01:50:23;26.20;99.90
5940;DHT22;2995;-31.998;115.906;2022-12-07T01:52:57;26.40;99.90
5940;DHT22;2995;-31.998;115.906;2022-12-07T01:55:29;26.60;99.90
5940;DHT22;2995;-31.998;115.906;2022-12-07T01:58:01;26.30;99.90
5940;DHT22;2995;-31.998;115.906;2022-12-07T02:00:32;26.10;99.90
5940;DHT22;2995;-31.998;115.906;2022-12-07T02:03:07;26.60;99.90
5940;DHT22;2995;-31.998;115.906;2022-12-07T02:05:41;26.80;99.90
5940;DHT22;2995;-31.998;115.906;2022-12-07T02:08:14;26.20;99.90
5940;DHT22;2995;-31.998;115.906;2022-12-07T02:10:46;26.70;99.90
5940;DHT22;2995;-31.998;115.906;2022-12-07T02:13:19;26.30;99.90
5940;DHT22;2995;-31.998;115.906;2022-12-07T02:16:04;26.10;99.90
5940;DHT22;2995;-31.998;115.906;2022-12-07T02:18:59;25.90;99.90
5940;DHT22;2995;-31.998;115.906;2022-12-07T02:21:38;26.10;99.90
5940;DHT22;2995;-31.998;115.906;2022-12-07T02:30:08;26.00;99.90
5940;DHT22;2995;-31.998;115.906;2022-12-07T02:32:54;25.60;99.90
5940;DHT22;2995;-31.998;115.906;2022-12-07T02:35:32;25.30;99.90
5940;DHT22;2995;-31.998;115.906;2022-12-07T02:38:11;25.40;99.90
5940;DHT22;2995;-31.998;115.906;2022-12-07T02:40:47;25.70;99.90
5940;DHT22;2995;-31.998;115.906;2022-12-07T02:43:21;25.30;99.90
5940;DHT22;2995;-31.998;115.906;2022-12-07T02:45:58;25.60;99.90
5940;DHT22;2995;-31.998;115.906;2022-12-07T02:48:33;26.10;99.90
5940;DHT22;2995;-31.998;115.906;2022-12-07T02:51:06;26.50;99.90
5940;DHT22;2995;-31.998;115.906;2022-12-07T02:53:38;26.50;99.90
5940;DHT22;2995;-31.998;115.906;2022-12-07T02:56:16;26.60;99.90
5940;DHT22;2995;-31.998;115.906;2022-12-07T02:58:59;26.50;99.90
5940;DHT22;2995;-31.998;115.906;2022-12-07T03:01:40;26.50;99.90
5940;DHT22;2995;-31.998;115.906;2022-12-07T03:04:21;26.60;99.90
5940;DHT22;2995;-31.998;115.906;2022-12-07T03:07:15;26.50;99.90
5940;DHT22;2995;-31.998;115.906;2022-12-07T03:09:54;26.50;99.90
5940;DHT22;2995;-31.998;115.906;2022-12-07T03:12:32;27.00;99.90
5940;DHT22;2995;-31.998;115.906;2022-12-07T03:15:12;27.30;99.90
5940;DHT22;2995;-31.998;115.906;2022-12-07T03:17:49;27.10;99.90
5940;DHT22;2995;-31.998;115.906;2022-12-07T03:20:23;27.20;99.90
5940;DHT22;2995;-31.998;115.906;2022-12-07T03:22:55;27.00;99.90
5940;DHT22;2995;-31.998;115.906;2022-12-07T03:25:28;26.70;99.90
5940;DHT22;2995;-31.998;115.906;2022-12-07T03:28:04;26.80;99.90
5940;DHT22;2995;-31.998;115.906;2022-12-07T03:30:39;26.50;99.90
5940;DHT22;2995;-31.998;115.906;2022-12-07T03:33:18;26.70;99.90
5940;DHT22;2995;-31.998;115.906;2022-12-07T03:35:54;27.00;99.90
5940;DHT22;2995;-31.998;115.906;2022-12-07T03:38:32;27.10;99.90
5940;DHT22;2995;-31.998;115.906;2022-12-07T03:41:08;27.40;99.90
5940;DHT22;2995;-31.998;115.906;2022-12-07T03:43:41;27.50;99.90
5940;DHT22;2995;-31.998;115.906;2022-12-07T03:46:20;27.70;99.90
5940;DHT22;2995;-31.998;115.906;2022-12-07T03:49:02;28.00;99.90
5940;DHT22;2995;-31.998;115.906;2022-12-07T03:51:40;27.50;99.90
5940;DHT22;2995;-31.998;115.906;2022-12-07T03:54:18;27.60;99.90
5940;DHT22;2995;-31.998;115.906;2022-12-07T03:56:50;27.50;99.90
5940;DHT22;2995;-31.998;115.906;2022-12-07T03:59:22;27.50;99.90
5940;DHT22;2995;-31.998;115.906;2022-12-07T04:01:55;27.70;99.90
5940;DHT22;2995;-31.998;115.906;2022-12-07T04:04:29;27.70;99.90
5940;DHT22;2995;-31.998;115.906;2022-12-07T04:07:01;27.90;99.90
5940;DHT22;2995;-31.998;115.906;2022-12-07T04:09:32;28.20;99.90
5940;DHT22;2995;-31.998;115.906;2022-12-07T04:12:04;28.30;99.90
5940;DHT22;2995;-31.998;115.906;2022-12-07T04:14:35;28.20;99.90
5940;DHT22;2995;-31.998;115.906;2022-12-07T04:17:06;28.30;99.90
5940;DHT22;2995;-31.998;115.906;2022-12-07T04:19:40;28.10;99.90
5940;DHT22;2995;-31.998;115.906;2022-12-07T04:22:11;28.40;99.90
5940;DHT22;2995;-31.998;115.906;2022-12-07T04:24:42;28.50;99.90
5940;DHT22;2995;-31.998;115.906;2022-12-07T04:27:14;28.10;99.90
5940;DHT22;2995;-31.998;115.906;2022-12-07T04:29:45;28.40;99.90
5940;DHT22;2995;-31.998;115.906;2022-12-07T04:32:16;28.30;99.90
5940;DHT22;2995;-31.998;115.906;2022-12-07T04:34:50;28.20;99.90
5940;DHT22;2995;-31.998;115.906;2022-12-07T04:37:21;28.30;99.90
5940;DHT22;2995;-31.998;115.906;2022-12-07T04:39:52;28.50;99.90
5940;DHT22;2995;-31.998;115.906;2022-12-07T04:42:24;28.20;99.90
5940;DHT22;2995;-31.998;115.906;2022-12-07T04:44:55;28.70;99.90
5940;DHT22;2995;-31.998;115.906;2022-12-07T04:47:26;28.70;99.90
5940;DHT22;2995;-31.998;115.906;2022-12-07T04:50:00;28.90;99.90
5940;DHT22;2995;-31.998;115.906;2022-12-07T04:52:31;28.80;99.90
5940;DHT22;2995;-31.998;115.906;2022-12-07T04:55:02;28.90;99.90
5940;DHT22;2995;-31.998;115.906;2022-12-07T04:57:34;29.40;99.90
5940;DHT22;2995;-31.998;115.906;2022-12-07T05:00:06;29.20;99.90
5940;DHT22;2995;-31.998;115.906;2022-12-07T05:02:37;28.90;99.90
5940;DHT22;2995;-31.998;115.906;2022-12-07T05:05:11;29.10;99.90
5940;DHT22;2995;-31.998;115.906;2022-12-07T05:07:42;29.00;99.90
5940;DHT22;2995;-31.998;115.906;2022-12-07T05:10:13;29.10;99.90
5940;DHT22;2995;-31.998;115.906;2022-12-07T05:12:44;29.30;99.90
5940;DHT22;2995;-31.998;115.906;2022-12-07T05:15:16;29.30;99.90
5940;DHT22;2995;-31.998;115.906;2022-12-07T05:17:47;29.10;99.90
5940;DHT22;2995;-31.998;115.906;2022-12-07T05:20:22;28.90;99.90
5940;DHT22;2995;-31.998;115.906;2022-12-07T05:22:53;29.10;99.90
5940;DHT22;2995;-31.998;115.906;2022-12-07T05:25:26;29.70;99.90
5940;DHT22;2995;-31.998;115.906;2022-12-07T05:27:58;29.50;99.90
5940;DHT22;2995;-31.998;115.906;2022-12-07T05:30:30;29.30;99.90
5940;DHT22;2995;-31.998;115.906;2022-12-07T05:33:01;29.60;99.90
5940;DHT22;2995;-31.998;115.906;2022-12-07T05:35:35;29.60;99.90
5940;DHT22;2995;-31.998;115.906;2022-12-07T05:38:06;29.40;99.90
5940;DHT22;2995;-31.998;115.906;2022-12-07T05:40:38;29.20;99.90
5940;DHT22;2995;-31.998;115.906;2022-12-07T05:43:09;29.10;99.90
5940;DHT22;2995;-31.998;115.906;2022-12-07T05:45:41;29.20;99.90
5940;DHT22;2995;-31.998;115.906;2022-12-07T05:48:12;29.40;99.90
5940;DHT22;2995;-31.998;115.906;2022-12-07T05:50:48;29.60;99.90
5940;DHT22;2995;-31.998;115.906;2022-12-07T05:53:20;29.70;99.90
5940;DHT22;2995;-31.998;115.906;2022-12-07T05:55:53;29.70;99.90
5940;DHT22;2995;-31.998;115.906;2022-12-07T05:58:24;30.00;99.90
5940;DHT22;2995;-31.998;115.906;2022-12-07T06:01:11;30.00;99.90
5940;DHT22;2995;-31.998;115.906;2022-12-07T06:03:42;30.30;99.90
5940;DHT22;2995;-31.998;115.906;2022-12-07T06:06:16;30.30;99.90
5940;DHT22;2995;-31.998;115.906;2022-12-07T06:08:47;30.20;99.90
5940;DHT22;2995;-31.998;115.906;2022-12-07T06:11:19;30.20;99.90
5940;DHT22;2995;-31.998;115.906;2022-12-07T06:14:05;30.10;99.90
5940;DHT22;2995;-31.998;115.906;2022-12-07T06:16:37;29.70;99.90
5940;DHT22;2995;-31.998;115.906;2022-12-07T06:19:08;29.80;99.90
5940;DHT22;2995;-31.998;115.906;2022-12-07T06:21:41;29.60;99.90
5940;DHT22;2995;-31.998;115.906;2022-12-07T06:24:13;29.60;99.90
5940;DHT22;2995;-31.998;115.906;2022-12-07T06:26:45;30.10;99.90
5940;DHT22;2995;-31.998;115.906;2022-12-07T06:29:19;29.90;99.90
5940;DHT22;2995;-31.998;115.906;2022-12-07T06:31:50;29.80;99.90
5940;DHT22;2995;-31.998;115.906;2022-12-07T06:34:22;30.00;99.90
5940;DHT22;2995;-31.998;115.906;2022-12-07T06:36:56;30.00;99.90
5940;DHT22;2995;-31.998;115.906;2022-12-07T06:39:29;30.40;99.90
5940;DHT22;2995;-31.998;115.906;2022-12-07T06:42:00;30.30;99.90
5940;DHT22;2995;-31.998;115.906;2022-12-07T06:44:31;30.40;99.90
5940;DHT22;2995;-31.998;115.906;2022-12-07T06:47:03;30.30;99.90
5940;DHT22;2995;-31.998;115.906;2022-12-07T06:49:35;30.30;99.90
5940;DHT22;2995;-31.998;115.906;2022-12-07T06:52:09;30.30;99.90
5940;DHT22;2995;-31.998;115.906;2022-12-07T06:54:40;30.50;99.90
5940;DHT22;2995;-31.998;115.906;2022-12-07T06:57:11;30.50;99.90
5940;DHT22;2995;-31.998;115.906;2022-12-07T06:59:42;30.60;99.90
5940;DHT22;2995;-31.998;115.906;2022-12-07T07:02:14;30.50;99.90
5940;DHT22;2995;-31.998;115.906;2022-12-07T07:04:45;30.70;99.90
5940;DHT22;2995;-31.998;115.906;2022-12-07T07:07:18;30.90;99.90
5940;DHT22;2995;-31.998;115.906;2022-12-07T07:09:49;30.50;99.50
5940;DHT22;2995;-31.998;115.906;2022-12-07T07:12:20;30.40;99.60
5940;DHT22;2995;-31.998;115.906;2022-12-07T07:14:52;30.10;99.40
5940;DHT22;2995;-31.998;115.906;2022-12-07T07:17:23;30.30;99.80
5940;DHT22;2995;-31.998;115.906;2022-12-07T07:19:55;30.40;99.70
5940;DHT22;2995;-31.998;115.906;2022-12-07T07:22:28;30.70;99.60
5940;DHT22;2995;-31.998;115.906;2022-12-07T07:24:59;30.80;99.30
5940;DHT22;2995;-31.998;115.906;2022-12-07T07:27:31;30.70;99.30
5940;DHT22;2995;-31.998;115.906;2022-12-07T07:30:02;30.90;98.90
5940;DHT22;2995;-31.998;115.906;2022-12-07T07:32:33;30.60;99.00
5940;DHT22;2995;-31.998;115.906;2022-12-07T07:35:05;30.70;99.40
5940;DHT22;2995;-31.998;115.906;2022-12-07T07:37:38;30.80;98.70
5940;DHT22;2995;-31.998;115.906;2022-12-07T07:40:10;30.90;98.60
5940;DHT22;2995;-31.998;115.906;2022-12-07T07:42:41;30.80;98.50
5940;DHT22;2995;-31.998;115.906;2022-12-07T07:45:13;30.70;98.50
5940;DHT22;2995;-31.998;115.906;2022-12-07T07:47:44;30.70;98.70
5940;DHT22;2995;-31.998;115.906;2022-12-07T07:50:16;30.80;98.90
5940;DHT22;2995;-31.998;115.906;2022-12-07T07:52:49;30.80;98.60
5940;DHT22;2995;-31.998;115.906;2022-12-07T07:55:20;30.90;98.50
5940;DHT22;2995;-31.998;115.906;2022-12-07T07:57:51;30.80;97.90
5940;DHT22;2995;-31.998;115.906;2022-12-07T08:00:23;30.60;98.10
5940;DHT22;2995;-31.998;115.906;2022-12-07T08:02:54;30.80;98.30
5940;DHT22;2995;-31.998;115.906;2022-12-07T08:05:27;30.80;98.40
5940;DHT22;2995;-31.998;115.906;2022-12-07T08:08:01;30.80;97.60
5940;DHT22;2995;-31.998;115.906;2022-12-07T08:10:33;30.70;97.80
5940;DHT22;2995;-31.998;115.906;2022-12-07T08:13:05;30.70;97.50
5940;DHT22;2995;-31.998;115.906;2022-12-07T08:15:42;30.70;97.60
5940;DHT22;2995;-31.998;115.906;2022-12-07T08:18:14;30.80;98.30
5940;DHT22;2995;-31.998;115.906;2022-12-07T08:20:45;30.90;97.80
5940;DHT22;2995;-31.998;115.906;2022-12-07T08:23:19;30.80;96.90
5940;DHT22;2995;-31.998;115.906;2022-12-07T08:25:50;30.80;97.70
5940;DHT22;2995;-31.998;115.906;2022-12-07T08:28:21;30.90;97.10
5940;DHT22;2995;-31.998;115.906;2022-12-07T08:30:53;30.70;97.40
5940;DHT22;2995;-31.998;115.906;2022-12-07T08:33:29;30.70;97.20
5940;DHT22;2995;-31.998;115.906;2022-12-07T08:36:02;30.80;96.90
5940;DHT22;2995;-31.998;115.906;2022-12-07T08:38:36;30.90;97.30
5940;DHT22;2995;-31.998;115.906;2022-12-07T08:41:08;31.00;96.60
5940;DHT22;2995;-31.998;115.906;2022-12-07T08:43:39;31.10;97.60
5940;DHT22;2995;-31.998;115.906;2022-12-07T08:46:12;31.10;96.50
5940;DHT22;2995;-31.998;115.906;2022-12-07T08:48:46;31.10;96.50
5940;DHT22;2995;-31.998;115.906;2022-12-07T08:51:19;31.00;96.40
5940;DHT22;2995;-31.998;115.906;2022-12-07T08:53:53;31.20;96.80
5940;DHT22;2995;-31.998;115.906;2022-12-07T08:56:26;31.50;96.60
5940;DHT22;2995;-31.998;115.906;2022-12-07T08:58:58;31.60;96.40
5940;DHT22;2995;-31.998;115.906;2022-12-07T09:01:30;31.50;96.10
5940;DHT22;2995;-31.998;115.906;2022-12-07T09:04:02;31.50;95.80
5940;DHT22;2995;-31.998;115.906;2022-12-07T09:06:34;31.50;95.60
5940;DHT22;2995;-31.998;115.906;2022-12-07T09:09:08;31.40;95.80
5940;DHT22;2995;-31.998;115.906;2022-12-07T09:11:40;31.50;95.70
5940;DHT22;2995;-31.998;115.906;2022-12-07T09:14:12;31.50;95.10
5940;DHT22;2995;-31.998;115.906;2022-12-07T09:16:43;31.40;95.10
5940;DHT22;2995;-31.998;115.906;2022-12-07T09:19:15;31.50;95.50
5940;DHT22;2995;-31.998;115.906;2022-12-07T09:21:47;31.50;95.00
5940;DHT22;2995;-31.998;115.906;2022-12-07T09:24:20;31.50;95.10
5940;DHT22;2995;-31.998;115.906;2022-12-07T09:26:51;31.30;94.90
5940;DHT22;2995;-31.998;115.906;2022-12-07T09:29:22;31.30;94.80
5940;DHT22;2995;-31.998;115.906;2022-12-07T09:31:55;31.10;94.50
5940;DHT22;2995;-31.998;115.906;2022-12-07T09:34:26;30.90;93.80
5940;DHT22;2995;-31.998;115.906;2022-12-07T09:37:00;30.90;94.40
5940;DHT22;2995;-31.998;115.906;2022-12-07T09:39:39;30.80;94.20
5940;DHT22;2995;-31.998;115.906;2022-12-07T09:42:15;30.70;94.50
5940;DHT22;2995;-31.998;115.906;2022-12-07T09:44:49;30.70;94.50
5940;DHT22;2995;-31.998;115.906;2022-12-07T09:47:21;30.60;94.00
5940;DHT22;2995;-31.998;115.906;2022-12-07T09:49:52;30.50;94.40
5940;DHT22;2995;-31.998;115.906;2022-12-07T09:52:28;30.30;93.80
5940;DHT22;2995;-31.998;115.906;2022-12-07T09:55:03;30.30;94.00
5940;DHT22;2995;-31.998;115.906;2022-12-07T09:57:39;30.20;94.80
5940;DHT22;2995;-31.998;115.906;2022-12-07T10:00:14;30.30;94.80
5940;DHT22;2995;-31.998;115.906;2022-12-07T10:02:49;30.10;94.80
5940;DHT22;2995;-31.998;115.906;2022-12-07T10:05:23;30.10;94.30
5940;DHT22;2995;-31.998;115.906;2022-12-07T10:07:55;30.00;94.60
5940;DHT22;2995;-31.998;115.906;2022-12-07T10:10:31;30.00;93.90
5940;DHT22;2995;-31.998;115.906;2022-12-07T10:13:04;30.00;93.80
5940;DHT22;2995;-31.998;115.906;2022-12-07T10:15:47;30.00;93.50
5940;DHT22;2995;-31.998;115.906;2022-12-07T10:18:27;29.90;93.90
5940;DHT22;2995;-31.998;115.906;2022-12-07T10:21:12;29.80;93.70
5940;DHT22;2995;-31.998;115.906;2022-12-07T10:24:00;29.70;93.90
5940;DHT22;2995;-31.998;115.906;2022-12-07T10:26:36;29.70;94.50
5940;DHT22;2995;-31.998;115.906;2022-12-07T10:29:16;29.50;98.10
5940;DHT22;2995;-31.998;115.906;2022-12-07T10:31:50;29.30;99.90
5940;DHT22;2995;-31.998;115.906;2022-12-07T10:34:25;29.20;99.90
5940;DHT22;2995;-31.998;115.906;2022-12-07T10:37:15;29.10;99.90
5940;DHT22;2995;-31.998;115.906;2022-12-07T10:39:48;28.90;99.90
5940;DHT22;2995;-31.998;115.906;2022-12-07T10:42:23;28.60;99.90
5940;DHT22;2995;-31.998;115.906;2022-12-07T10:45:08;28.50;99.90
5940;DHT22;2995;-31.998;115.906;2022-12-07T10:47:46;28.20;99.90
5940;DHT22;2995;-31.998;115.906;2022-12-07T10:50:47;27.90;99.90
5940;DHT22;2995;-31.998;115.906;2022-12-07T10:53:35;27.60;99.90
5940;DHT22;2995;-31.998;115.906;2022-12-07T10:56:25;27.30;99.90
5940;DHT22;2995;-31.998;115.906;2022-12-07T10:59:15;27.30;99.90
5940;DHT22;2995;-31.998;115.906;2022-12-07T11:01:54;27.00;99.90
5940;DHT22;2995;-31.998;115.906;2022-12-07T11:04:34;27.00;99.90
5940;DHT22;2995;-31.998;115.906;2022-12-07T11:07:12;26.90;99.90
5940;DHT22;2995;-31.998;115.906;2022-12-07T11:10:03;26.50;99.90
5940;DHT22;2995;-31.998;115.906;2022-12-07T11:12:54;26.50;99.90
5940;DHT22;2995;-31.998;115.906;2022-12-07T11:15:36;26.40;99.90
5940;DHT22;2995;-31.998;115.906;2022-12-07T11:18:17;25.90;99.90
5940;DHT22;2995;-31.998;115.906;2022-12-07T11:20:58;25.70;99.90
5940;DHT22;2995;-31.998;115.906;2022-12-07T11:23:39;25.60;99.90
5940;DHT22;2995;-31.998;115.906;2022-12-07T11:26:18;25.40;99.90
5940;DHT22;2995;-31.998;115.906;2022-12-07T11:29:09;25.30;99.90
5940;DHT22;2995;-31.998;115.906;2022-12-07T11:31:54;25.40;99.90
5940;DHT22;2995;-31.998;115.906;2022-12-07T11:34:36;25.40;99.90
5940;DHT22;2995;-31.998;115.906;2022-12-07T11:37:12;25.20;99.90
5940;DHT22;2995;-31.998;115.906;2022-12-07T11:39:48;25.10;99.90
5940;DHT22;2995;-31.998;115.906;2022-12-07T11:42:24;25.20;99.90
5940;DHT22;2995;-31.998;115.906;2022-12-07T11:45:01;25.20;99.90
5940;DHT22;2995;-31.998;115.906;2022-12-07T11:47:39;25.20;99.90
5940;DHT22;2995;-31.998;115.906;2022-12-07T11:50:23;25.20;99.90
5940;DHT22;2995;-31.998;115.906;2022-12-07T11:52:59;25.10;99.90
5940;DHT22;2995;-31.998;115.906;2022-12-07T11:55:39;25.10;99.90
5940;DHT22;2995;-31.998;115.906;2022-12-07T11:58:35;25.00;99.90
5940;DHT22;2995;-31.998;115.906;2022-12-07T12:01:14;25.00;99.90
5940;DHT22;2995;-31.998;115.906;2022-12-07T12:03:52;24.90;99.90
5940;DHT22;2995;-31.998;115.906;2022-12-07T12:06:24;24.70;99.90
5940;DHT22;2995;-31.998;115.906;2022-12-07T12:09:00;24.60;99.90
5940;DHT22;2995;-31.998;115.906;2022-12-07T12:11:46;24.60;99.90
5940;DHT22;2995;-31.998;115.906;2022-12-07T12:14:32;24.60;99.90
5940;DHT22;2995;-31.998;115.906;2022-12-07T12:20:26;24.50;99.90
5940;DHT22;2995;-31.998;115.906;2022-12-07T12:23:04;24.30;99.90
5940;DHT22;2995;-31.998;115.906;2022-12-07T12:25:40;24.20;99.90
5940;DHT22;2995;-31.998;115.906;2022-12-07T12:28:23;24.20;99.90
5940;DHT22;2995;-31.998;115.906;2022-12-07T12:31:10;24.10;99.90
5940;DHT22;2995;-31.998;115.906;2022-12-07T12:33:45;24.00;99.90
5940;DHT22;2995;-31.998;115.906;2022-12-07T12:36:24;23.80;99.90
5940;DHT22;2995;-31.998;115.906;2022-12-07T12:39:13;23.80;99.90
5940;DHT22;2995;-31.998;115.906;2022-12-07T12:42:01;23.70;99.90
5940;DHT22;2995;-31.998;115.906;2022-12-07T12:47:56;23.90;99.90
5940;DHT22;2995;-31.998;115.906;2022-12-07T12:50:30;23.80;99.90
5940;DHT22;2995;-31.998;115.906;2022-12-07T12:53:23;23.80;99.90
5940;DHT22;2995;-31.998;115.906;2022-12-07T12:56:20;23.70;99.90
5940;DHT22;2995;-31.998;115.906;2022-12-07T13:02:21;23.80;99.90
5940;DHT22;2995;-31.998;115.906;2022-12-07T13:04:55;23.80;99.90
5940;DHT22;2995;-31.998;115.906;2022-12-07T13:07:52;23.80;99.90
5940;DHT22;2995;-31.998;115.906;2022-12-07T13:10:34;23.70;99.90
5940;DHT22;2995;-31.998;115.906;2022-12-07T13:13:29;23.50;99.90
5940;DHT22;2995;-31.998;115.906;2022-12-07T13:16:38;23.50;99.90
5940;DHT22;2995;-31.998;115.906;2022-12-07T13:22:50;23.10;99.90
5940;DHT22;2995;-31.998;115.906;2022-12-07T13:25:34;23.10;99.90
5940;DHT22;2995;-31.998;115.906;2022-12-07T13:28:15;23.00;99.90
5940;DHT22;2995;-31.998;115.906;2022-12-07T13:31:11;23.30;99.90
5940;DHT22;2995;-31.998;115.906;2022-12-07T13:33:46;23.40;99.90
5940;DHT22;2995;-31.998;115.906;2022-12-07T13:36:21;23.40;99.90
5940;DHT22;2995;-31.998;115.906;2022-12-07T13:38:55;23.50;99.90
5940;DHT22;2995;-31.998;115.906;2022-12-07T13:41:29;23.50;99.90
5940;DHT22;2995;-31.998;115.906;2022-12-07T13:44:05;23.60;99.90
5940;DHT22;2995;-31.998;115.906;2022-12-07T13:46:46;23.60;99.90
5940;DHT22;2995;-31.998;115.906;2022-12-07T13:49:20;23.50;99.90
5940;DHT22;2995;-31.998;115.906;2022-12-07T13:51:53;23.50;99.90
5940;DHT22;2995;-31.998;115.906;2022-12-07T13:54:24;23.70;99.90
5940;DHT22;2995;-31.998;115.906;2022-12-07T13:56:58;23.90;99.90
5940;DHT22;2995;-31.998;115.906;2022-12-07T13:59:30;23.90;99.90
5940;DHT22;2995;-31.998;115.906;2022-12-07T14:02:01;24.20;99.90
5940;DHT22;2995;-31.998;115.906;2022-12-07T14:04:34;24.80;99.90
5940;DHT22;2995;-31.998;115.906;2022-12-07T14:07:21;24.80;99.90
5940;DHT22;2995;-31.998;115.906;2022-12-07T14:09:58;24.70;99.90
5940;DHT22;2995;-31.998;115.906;2022-12-07T14:12:32;24.70;99.90
5940;DHT22;2995;-31.998;115.906;2022-12-07T14:15:15;24.80;99.90
5940;DHT22;2995;-31.998;115.906;2022-12-07T14:17:53;23.90;99.90
5940;DHT22;2995;-31.998;115.906;2022-12-07T14:20:32;23.70;99.90
5940;DHT22;2995;-31.998;115.906;2022-12-07T14:23:04;23.60;99.90
5940;DHT22;2995;-31.998;115.906;2022-12-07T14:25:47;23.60;99.90
5940;DHT22;2995;-31.998;115.906;2022-12-07T14:28:31;24.10;99.90
5940;DHT22;2995;-31.998;115.906;2022-12-07T14:31:07;24.20;99.90
5940;DHT22;2995;-31.998;115.906;2022-12-07T14:33:39;24.20;99.90
5940;DHT22;2995;-31.998;115.906;2022-12-07T14:36:11;24.20;99.90
5940;DHT22;2995;-31.998;115.906;2022-12-07T14:38:43;24.20;99.90
5940;DHT22;2995;-31.998;115.906;2022-12-07T14:41:17;24.20;99.90
5940;DHT22;2995;-31.998;115.906;2022-12-07T14:44:12;24.20;99.90
5940;DHT22;2995;-31.998;115.906;2022-12-07T14:46:43;24.10;99.90
5940;DHT22;2995;-31.998;115.906;2022-12-07T14:49:15;23.90;99.90
5940;DHT22;2995;-31.998;115.906;2022-12-07T14:51:47;23.70;99.90
5940;DHT22;2995;-31.998;115.906;2022-12-07T14:54:20;23.40;99.90
5940;DHT22;2995;-31.998;115.906;2022-12-07T14:56:51;23.20;99.90
5940;DHT22;2995;-31.998;115.906;2022-12-07T14:59:24;23.10;99.90
5940;DHT22;2995;-31.998;115.906;2022-12-07T15:01:55;22.90;99.90
5940;DHT22;2995;-31.998;115.906;2022-12-07T15:04:27;22.80;99.90
5940;DHT22;2995;-31.998;115.906;2022-12-07T15:06:58;22.80;99.90
5940;DHT22;2995;-31.998;115.906;2022-12-07T15:09:30;22.40;99.90
5940;DHT22;2995;-31.998;115.906;2022-12-07T15:12:02;22.00;99.90
5940;DHT22;2995;-31.998;115.906;2022-12-07T15:14:35;22.00;99.90
5940;DHT22;2995;-31.998;115.906;2022-12-07T15:17:07;21.90;99.90
5940;DHT22;2995;-31.998;115.906;2022-12-07T15:19:40;22.00;99.90
5940;DHT22;2995;-31.998;115.906;2022-12-07T15:22:12;22.10;99.90
5940;DHT22;2995;-31.998;115.906;2022-12-07T15:24:43;22.30;99.90
5940;DHT22;2995;-31.998;115.906;2022-12-07T15:27:14;22.40;99.90
5940;DHT22;2995;-31.998;115.906;2022-12-07T15:29:48;22.60;99.90
5940;DHT22;2995;-31.998;115.906;2022-12-07T15:32:19;22.60;99.90
5940;DHT22;2995;-31.998;115.906;2022-12-07T15:34:50;22.70;99.90
5940;DHT22;2995;-31.998;115.906;2022-12-07T15:37:22;22.90;99.90
5940;DHT22;2995;-31.998;115.906;2022-12-07T15:39:53;23.00;99.90
5940;DHT22;2995;-31.998;115.906;2022-12-07T15:42:24;23.00;99.90
5940;DHT22;2995;-31.998;115.906;2022-12-07T15:44:57;23.00;99.90
5940;DHT22;2995;-31.998;115.906;2022-12-07T15:47:34;22.90;99.90
5940;DHT22;2995;-31.998;115.906;2022-12-07T15:50:08;22.90;99.90
5940;DHT22;2995;-31.998;115.906;2022-12-07T15:52:39;22.90;99.90
5940;DHT22;2995;-31.998;115.906;2022-12-07T15:55:11;22.80;99.90
5940;DHT22;2995;-31.998;115.906;2022-12-07T15:57:42;22.80;99.90
5940;DHT22;2995;-31.998;115.906;2022-12-07T16:00:16;22.70;99.90
5940;DHT22;2995;-31.998;115.906;2022-12-07T16:02:48;22.60;99.90
5940;DHT22;2995;-31.998;115.906;2022-12-07T16:05:19;22.50;99.90
5940;DHT22;2995;-31.998;115.906;2022-12-07T16:07:50;22.50;99.90
5940;DHT22;2995;-31.998;115.906;2022-12-07T16:10:21;22.50;99.90
5940;DHT22;2995;-31.998;115.906;2022-12-07T16:12:52;22.40;99.90
5940;DHT22;2995;-31.998;115.906;2022-12-07T16:15:26;22.40;99.90
5940;DHT22;2995;-31.998;115.906;2022-12-07T16:17:57;22.30;99.90
5940;DHT22;2995;-31.998;115.906;2022-12-07T16:20:28;22.20;99.90
5940;DHT22;2995;-31.998;115.906;2022-12-07T16:22:59;22.10;99.90
5940;DHT22;2995;-31.998;115.906;2022-12-07T16:25:31;22.10;99.90